Containerships 6 — DABH — position and weather

sailwx.info

Track history (hours):
 
Tides and Currents Weather Stations Pressure Air Temp Water Temp Dewpoint Dewpoint Depression Visibility Wind Speed Wind Dir Waves Ship Positions

Containerships 6

Last reported at 2018-Feb-24 08:30 UTC. Time now 2018-Feb-24 08:42 UTC.
Position N 60°13' E 025°12'.

Length 155 m; beam 21.8 m; draft 8.9 m.

Type: Ship (hazmat cat A). MMSI: 211315096.

Date/timePositionNaut miles runAvg speedWind from/ knotsBaromVisibWave heightAir tempDewpointWater temp
2018-Feb-24 08:30N 60°13' E 025°12'0 0.0
2018-Feb-24 08:00N 60°13' E 025°12'0 0.0
2018-Feb-24 07:30N 60°13' E 025°12'0 0.0
2018-Feb-24 07:00N 60°13' E 025°12'0 0.0
2018-Feb-24 06:30N 60°13' E 025°12'0 0.0
2018-Feb-24 06:00N 60°13' E 025°12'0 0.1
2018-Feb-24 05:30N 60°13' E 025°11'1 2.3
2018-Feb-24 05:00N 60°12' E 025°13'713.5
2018-Feb-24 04:31N 60°06' E 025°11'713.4
2018-Feb-24 04:00N 60°00' E 025°19'919.1
2018-Feb-24 03:30N 59°57' E 025°37'1819.1
2018-Feb-24 02:35N 59°60' E 026°12'118.6
2018-Feb-24 02:31N 60°00' E 026°15'918.9
2018-Feb-24 02:00N 60°02' E 026°33'1818.3
2018-Feb-24 01:00N 60°01' E 027°10'1717.4
2018-Feb-24 00:00N 60°10' E 027°41'917.4
2018-Feb-23 23:30N 60°10' E 027°58'815.3
2018-Feb-23 23:01N 60°08' E 028°13'814.9
2018-Feb-23 22:30N 60°05' E 028°26'715.0
2018-Feb-23 22:00N 60°03' E 028°41'816.1
2018-Feb-23 21:30N 60°03' E 028°57'916.7
2018-Feb-23 21:00N 60°02' E 029°14'7 9.8
2018-Feb-23 20:14N 60°02' E 029°29'2 9.7
2018-Feb-23 19:59N 60°01' E 029°33'510.8
2018-Feb-23 19:30N 59°59' E 029°43'1 2.2
2018-Feb-23 18:59N 60°00' E 029°43'0 0.1
2018-Feb-23 18:26N 60°00' E 029°43'0 0.0
2018-Feb-23 17:59N 60°00' E 029°43'0 0.0
2018-Feb-23 17:29N 60°00' E 029°43'0 0.0
2018-Feb-23 16:59N 60°00' E 029°43'0 0.0
2018-Feb-23 16:29N 60°00' E 029°43'0 0.0
2018-Feb-23 15:59N 60°00' E 029°43'0 0.0
2018-Feb-23 15:26N 60°00' E 029°43'0 0.0
2018-Feb-23 14:59N 60°00' E 029°43'0 0.0
2018-Feb-23 14:20N 60°00' E 029°43'0 0.0
2018-Feb-23 13:59N 60°00' E 029°43'0 0.0
2018-Feb-23 13:29N 60°00' E 029°43'0 0.0
2018-Feb-23 08:50N 60°00' E 029°43'0 0.0
2018-Feb-23 08:26N 60°00' E 029°43'0 0.1
2018-Feb-23 07:58N 60°00' E 029°43'0 0.2
2018-Feb-23 07:28N 60°00' E 029°43'1 1.9
2018-Feb-23 07:00N 59°59' E 029°42'5 9.7
2018-Feb-23 06:30N 60°01' E 029°33'4 5.9
2018-Feb-23 05:54N 60°01' E 029°26'2 4.6
2018-Feb-23 05:29N 60°02' E 029°23'3 3.9
2018-Feb-23 04:50N 60°02' E 029°18'1 3.8
2018-Feb-23 04:27N 60°02' E 029°15'3 6.0
2018-Feb-23 04:00N 60°02' E 029°09'3 6.3
2018-Feb-23 03:30N 60°02' E 029°03'3 6.1
2018-Feb-23 03:00N 60°02' E 028°57'815.3
2018-Feb-23 02:30N 60°02' E 028°42'816.4
2018-Feb-23 02:00N 60°05' E 028°26'918.1
2018-Feb-23 01:30N 60°08' E 028°10'918.0
2018-Feb-23 01:01N 60°10' E 027°52'917.2
2018-Feb-23 00:31N 60°07' E 027°35'918.6
2018-Feb-23 00:00N 60°02' E 027°20'918.2
2018-Feb-22 23:31N 59°58' E 027°04'918.2
2018-Feb-22 23:01N 59°59' E 026°46'917.8
2018-Feb-22 22:30N 59°58' E 026°29'3418.4
2018-Feb-22 20:40N 59°50' E 025°23'318.9
2018-Feb-22 20:30N 59°50' E 025°17'919.0
2018-Feb-22 20:00N 59°47' E 024°59'1019.0
2018-Feb-22 19:30N 59°45' E 024°40'918.9
2018-Feb-22 19:01N 59°43' E 024°22'918.8
2018-Feb-22 18:30N 59°40' E 024°04'1019.1
2018-Feb-22 18:00N 59°37' E 023°46'1019.7
2018-Feb-22 17:30N 59°33' E 023°28'1119.6
2018-Feb-22 16:58N 59°30' E 023°08'333 9.7
2018-Feb-21 06:41N 55°27' E 016°04'316.2
2018-Feb-21 06:30N 55°27' E 015°59'816.3
2018-Feb-21 06:00N 55°26' E 015°45'916.2
2018-Feb-21 05:28N 55°25' E 015°29'716.2
2018-Feb-21 05:00N 55°25' E 015°16'816.2
2018-Feb-21 04:30N 55°24' E 015°02'816.1
2018-Feb-21 04:00N 55°24' E 014°48'714.9
2018-Feb-21 03:30N 55°20' E 014°36'816.1
2018-Feb-21 03:00N 55°14' E 014°27'815.9
2018-Feb-21 02:31N 55°08' E 014°19'815.7
2018-Feb-21 02:00N 55°02' E 014°10'6915.7
2018-Feb-20 21:38N 54°35' E 012°20'215.5
2018-Feb-20 21:30N 54°33' E 012°19'815.4
2018-Feb-20 21:00N 54°27' E 012°13'714.8
2018-Feb-20 20:30N 54°24' E 012°01'1815.0
2018-Feb-20 19:18N 54°29' E 011°31'615.0
2018-Feb-20 18:56N 54°31' E 011°22'614.4
2018-Feb-20 18:30N 54°34' E 011°13'714.3
2018-Feb-20 18:00N 54°35' E 011°00'815.1
2018-Feb-20 17:30N 54°34' E 010°48'815.2
2018-Feb-20 17:00N 54°33' E 010°34'27 5.5
2018-Feb-20 12:12N 54°21' E 009°54'2 8.2
2018-Feb-20 11:58N 54°22' E 009°50'3 6.9
2018-Feb-20 11:30N 54°21' E 009°45'1 2.0
2018-Feb-20 11:00N 54°20' E 009°44'2 4.6
2018-Feb-20 10:30N 54°18' E 009°42'3 6.8
2018-Feb-20 10:00N 54°16' E 009°38'1 2.7
2018-Feb-20 09:30N 54°15' E 009°37'4 7.0
2018-Feb-20 09:00N 54°12' E 009°33'4 8.1
2018-Feb-20 08:30N 54°10' E 009°27'3 6.0
2018-Feb-20 08:00N 54°09' E 009°22'4 7.5
2018-Feb-20 07:30N 54°06' E 009°20'4 7.8
2018-Feb-20 07:00N 54°02' E 009°18'4 8.0
2018-Feb-20 06:30N 53°58' E 009°16'4 7.8
2018-Feb-20 06:00N 53°55' E 009°11'2 4.6
2018-Feb-20 05:30N 53°54' E 009°09'0 0.0
2018-Feb-20 05:00N 53°54' E 009°09'0 0.0
2018-Feb-20 04:30N 53°54' E 009°09'0 0.0
2018-Feb-20 04:00N 53°54' E 009°09'0 0.7
2018-Feb-20 03:30N 53°53' E 009°08'3 6.5
2018-Feb-20 03:00N 53°52' E 009°03'917.2
2018-Feb-20 02:30N 53°50' E 008°49'816.0
2018-Feb-20 02:00N 53°56' E 008°39'1019.2
2018-Feb-20 01:30N 53°59' E 008°24'916.5
2018-Feb-20 00:59N 53°59' E 008°09'1218.3
2018-Feb-20 00:22N 53°58' E 007°50'8919.1
2018-Feb-19 19:43N 53°34' E 005°26'1119.3
2018-Feb-19 19:09N 53°30' E 005°09'319.8
2018-Feb-19 18:59N 53°29' E 005°03'919.7
2018-Feb-19 18:30N 53°25' E 004°49'1019.3
2018-Feb-19 17:59N 53°18' E 004°37'1020.2
2018-Feb-19 17:30N 53°09' E 004°29'1019.8
2018-Feb-19 17:00N 53°01' E 004°22'1019.9
2018-Feb-19 16:30N 52°52' E 004°15'1120.0
2018-Feb-19 15:57N 52°42' E 004°05'1020.1
2018-Feb-19 15:28N 52°34' E 003°57'919.8
2018-Feb-19 15:00N 52°25' E 003°54'1019.1
2018-Feb-19 14:30N 52°16' E 003°53'919.1
2018-Feb-19 14:01N 52°06' E 003°55'5 9.7
2018-Feb-19 13:30N 52°01' E 003°54'917.3
2018-Feb-19 13:01N 51°58' E 004°08'612.9
2018-Feb-19 12:31N 51°54' E 004°16'5 9.7
2018-Feb-19 12:00N 51°54' E 004°24'1 2.6
2018-Feb-19 11:30N 51°53' E 004°25'0 0.0
2018-Feb-19 11:00N 51°53' E 004°25'0 0.0
2018-Feb-19 10:30N 51°53' E 004°25'0 0.0
2018-Feb-19 10:00N 51°53' E 004°25'0 0.0
2018-Feb-19 09:30N 51°53' E 004°25'0 0.0
2018-Feb-19 09:00N 51°53' E 004°25'0 0.0
2018-Feb-19 08:30N 51°53' E 004°25'0 0.0
2018-Feb-19 07:57N 51°53' E 004°25'0 0.0
2018-Feb-19 07:30N 51°53' E 004°25'0 0.0
2018-Feb-19 07:00N 51°53' E 004°25'0 0.0
2018-Feb-19 06:30N 51°53' E 004°25'0 0.0
2018-Feb-19 06:00N 51°53' E 004°25'0 0.0
2018-Feb-19 05:30N 51°53' E 004°25'0 0.0
2018-Feb-19 05:00N 51°53' E 004°25'0 0.0
2018-Feb-19 04:30N 51°53' E 004°25'0 0.0
2018-Feb-19 04:00N 51°53' E 004°25'0 0.0
2018-Feb-19 03:30N 51°53' E 004°25'0 0.0
2018-Feb-19 03:00N 51°53' E 004°25'0 0.0
2018-Feb-19 02:30N 51°53' E 004°25'0 0.0
2018-Feb-19 02:00N 51°53' E 004°25'0 0.0
2018-Feb-19 01:30N 51°53' E 004°25'0 0.0
2018-Feb-19 01:00N 51°53' E 004°25'0 0.0
2018-Feb-19 00:30N 51°53' E 004°25'0 1.0
2018-Feb-19 00:00N 51°53' E 004°24'4 7.1
2018-Feb-18 23:30N 51°54' E 004°19'611.1
2018-Feb-18 23:00N 51°57' E 004°11'611.0
2018-Feb-18 22:30N 51°59' E 004°03'917.4
2018-Feb-18 22:00N 52°01' E 003°50'918.9
2018-Feb-18 21:30N 52°05' E 003°35'1019.7
2018-Feb-18 20:59N 52°11' E 003°22'1019.9
2018-Feb-18 20:30N 52°16' E 003°09'2919.8
2018-Feb-18 19:02N 52°33' E 002°30'119.2
2018-Feb-18 19:00N 52°34' E 002°29'919.3
2018-Feb-18 18:30N 52°39' E 002°16'1019.0
2018-Feb-18 18:00N 52°44' E 002°03'918.6
2018-Feb-18 17:30N 52°49' E 001°50'917.8
2018-Feb-18 17:00N 52°54' E 001°38'917.5
2018-Feb-18 16:30N 53°01' E 001°29'917.8
2018-Feb-18 16:00N 53°08' E 001°20'917.9
2018-Feb-18 15:30N 53°16' E 001°12'118 5.2
2018-Feb-17 17:00N 54°41' W 001°07'4 8.0
2018-Feb-17 16:30N 54°43' W 001°02'1 2.5
2018-Feb-17 15:57N 54°43' W 000°59'2 5.7
2018-Feb-17 15:30N 54°44' W 000°56'3 6.0
2018-Feb-17 15:00N 54°46' W 000°51'3 6.7
2018-Feb-17 14:30N 54°48' W 000°46'42315.4
2018-Feb-16 10:58N 57°48' E 010°43'816.4
2018-Feb-16 10:30N 57°46' E 010°56'917.2
2018-Feb-16 10:00N 57°40' E 011°08'917.7
2018-Feb-16 09:30N 57°34' E 011°19'917.6
2018-Feb-16 09:00N 57°26' E 011°29'917.4
2018-Feb-16 08:30N 57°18' E 011°34'816.7
2018-Feb-16 08:00N 57°10' E 011°39'917.0
2018-Feb-16 07:30N 57°02' E 011°44'917.0
2018-Feb-16 07:00N 56°54' E 011°48'9615.7
2018-Feb-16 00:51N 55°21' E 011°02'718.2
2018-Feb-16 00:30N 55°15' E 011°06'817.3
2018-Feb-16 00:00N 55°06' E 011°03'918.2
2018-Feb-15 23:30N 54°58' E 010°59'918.0
2018-Feb-15 23:00N 54°49' E 010°53'816.8
2018-Feb-15 22:30N 54°41' E 010°55'917.7
2018-Feb-15 22:00N 54°37' E 011°09'917.9
2018-Feb-15 21:30N 54°33' E 011°23'917.7
2018-Feb-15 21:00N 54°29' E 011°37'917.5
2018-Feb-15 20:30N 54°27' E 011°51'917.5
2018-Feb-15 20:00N 54°26' E 012°06'9416.5
2018-Feb-15 14:18N 54°40' E 014°47'518.4
2018-Feb-15 14:00N 54°40' E 014°56'918.2
2018-Feb-15 13:30N 54°42' E 015°12'10318.2
2018-Feb-15 07:51N 54°55' E 018°09'618.4
2018-Feb-15 07:30N 54°55' E 018°20'918.0
2018-Feb-15 07:01N 54°53' E 018°35'918.8
2018-Feb-15 06:30N 54°47' E 018°48'917.9
2018-Feb-15 06:00N 54°40' E 018°58'1018.5
2018-Feb-15 05:29N 54°32' E 018°48'816.3
2018-Feb-15 05:00N 54°32' E 018°34'2 4.9
2018-Feb-15 04:30N 54°33' E 018°30'0 0.0
2018-Feb-15 04:00N 54°33' E 018°30'0 0.0
2018-Feb-15 03:30N 54°33' E 018°30'0 0.0
2018-Feb-15 03:00N 54°33' E 018°30'0 0.0
2018-Feb-15 02:30N 54°33' E 018°30'0 0.0
2018-Feb-15 02:00N 54°33' E 018°30'0 0.0
2018-Feb-15 01:30N 54°33' E 018°30'0 0.0
2018-Feb-15 01:00N 54°33' E 018°30'0 0.0
2018-Feb-15 00:28N 54°33' E 018°30'0 0.0
2018-Feb-14 23:59N 54°33' E 018°30'0 0.0
2018-Feb-14 23:30N 54°33' E 018°30'0 0.0
2018-Feb-14 23:00N 54°33' E 018°30'0 0.0
2018-Feb-14 22:30N 54°33' E 018°30'0 0.0
2018-Feb-14 22:00N 54°33' E 018°30'0 0.0
2018-Feb-14 21:30N 54°33' E 018°30'0 0.0
2018-Feb-14 21:00N 54°33' E 018°30'0 0.1
2018-Feb-14 20:29N 54°33' E 018°30'0 0.0
2018-Feb-14 20:00N 54°33' E 018°30'0 0.0
2018-Feb-14 19:29N 54°33' E 018°30'0 0.0
2018-Feb-14 19:00N 54°33' E 018°30'0 0.7
2018-Feb-14 18:30N 54°33' E 018°31'2 4.4
2018-Feb-14 18:00N 54°32' E 018°35'2 4.7
2018-Feb-14 17:30N 54°32' E 018°39'612.0
2018-Feb-14 17:00N 54°33' E 018°49'815.9
2018-Feb-14 16:30N 54°40' E 018°56'916.9
2018-Feb-14 16:00N 54°48' E 019°02'1019.2
2018-Feb-14 15:30N 54°57' E 019°08'918.9
2018-Feb-14 15:00N 55°05' E 019°14'  
Track history (hours):
 
Tides and Currents Weather Stations Pressure Air Temp Water Temp Dewpoint Dewpoint Depression Visibility Wind Speed Wind Dir Waves Ship Positions

Containerships 6

Last reported at 2018-Feb-24 08:30 UTC. Time now 2018-Feb-24 08:42 UTC.
Position N 60°13' E 025°12'.

Length 155 m; beam 21.8 m; draft 8.9 m.

Type: Ship (hazmat cat A). MMSI: 211315096.

Date/timePositionNaut miles runAvg speedWind from/ knotsBaromVisibWave heightAir tempDewpointWater temp
2018-Feb-24 08:30N 60°13' E 025°12'0 0.0
2018-Feb-24 08:00N 60°13' E 025°12'0 0.0
2018-Feb-24 07:30N 60°13' E 025°12'0 0.0
2018-Feb-24 07:00N 60°13' E 025°12'0 0.0
2018-Feb-24 06:30N 60°13' E 025°12'0 0.0
2018-Feb-24 06:00N 60°13' E 025°12'0 0.1
2018-Feb-24 05:30N 60°13' E 025°11'1 2.3
2018-Feb-24 05:00N 60°12' E 025°13'713.5
2018-Feb-24 04:31N 60°06' E 025°11'713.4
2018-Feb-24 04:00N 60°00' E 025°19'919.1
2018-Feb-24 03:30N 59°57' E 025°37'1819.1
2018-Feb-24 02:35N 59°60' E 026°12'118.6
2018-Feb-24 02:31N 60°00' E 026°15'918.9
2018-Feb-24 02:00N 60°02' E 026°33'1818.3
2018-Feb-24 01:00N 60°01' E 027°10'1717.4
2018-Feb-24 00:00N 60°10' E 027°41'917.4
2018-Feb-23 23:30N 60°10' E 027°58'815.3
2018-Feb-23 23:01N 60°08' E 028°13'814.9
2018-Feb-23 22:30N 60°05' E 028°26'715.0
2018-Feb-23 22:00N 60°03' E 028°41'816.1
2018-Feb-23 21:30N 60°03' E 028°57'916.7
2018-Feb-23 21:00N 60°02' E 029°14'7 9.8
2018-Feb-23 20:14N 60°02' E 029°29'2 9.7
2018-Feb-23 19:59N 60°01' E 029°33'510.8
2018-Feb-23 19:30N 59°59' E 029°43'1 2.2
2018-Feb-23 18:59N 60°00' E 029°43'0 0.1
2018-Feb-23 18:26N 60°00' E 029°43'0 0.0
2018-Feb-23 17:59N 60°00' E 029°43'0 0.0
2018-Feb-23 17:29N 60°00' E 029°43'0 0.0
2018-Feb-23 16:59N 60°00' E 029°43'0 0.0
2018-Feb-23 16:29N 60°00' E 029°43'0 0.0
2018-Feb-23 15:59N 60°00' E 029°43'0 0.0
2018-Feb-23 15:26N 60°00' E 029°43'0 0.0
2018-Feb-23 14:59N 60°00' E 029°43'0 0.0
2018-Feb-23 14:20N 60°00' E 029°43'0 0.0
2018-Feb-23 13:59N 60°00' E 029°43'0 0.0
2018-Feb-23 13:29N 60°00' E 029°43'0 0.0
2018-Feb-23 08:50N 60°00' E 029°43'0 0.0
2018-Feb-23 08:26N 60°00' E 029°43'0 0.1
2018-Feb-23 07:58N 60°00' E 029°43'0 0.2
2018-Feb-23 07:28N 60°00' E 029°43'1 1.9
2018-Feb-23 07:00N 59°59' E 029°42'5 9.7
2018-Feb-23 06:30N 60°01' E 029°33'4 5.9
2018-Feb-23 05:54N 60°01' E 029°26'2 4.6
2018-Feb-23 05:29N 60°02' E 029°23'3 3.9
2018-Feb-23 04:50N 60°02' E 029°18'1 3.8
2018-Feb-23 04:27N 60°02' E 029°15'3 6.0
2018-Feb-23 04:00N 60°02' E 029°09'3 6.3
2018-Feb-23 03:30N 60°02' E 029°03'3 6.1
2018-Feb-23 03:00N 60°02' E 028°57'815.3
2018-Feb-23 02:30N 60°02' E 028°42'816.4
2018-Feb-23 02:00N 60°05' E 028°26'918.1
2018-Feb-23 01:30N 60°08' E 028°10'918.0
2018-Feb-23 01:01N 60°10' E 027°52'917.2
2018-Feb-23 00:31N 60°07' E 027°35'918.6
2018-Feb-23 00:00N 60°02' E 027°20'918.2
2018-Feb-22 23:31N 59°58' E 027°04'918.2
2018-Feb-22 23:01N 59°59' E 026°46'917.8
2018-Feb-22 22:30N 59°58' E 026°29'3418.4
2018-Feb-22 20:40N 59°50' E 025°23'318.9
2018-Feb-22 20:30N 59°50' E 025°17'919.0
2018-Feb-22 20:00N 59°47' E 024°59'1019.0
2018-Feb-22 19:30N 59°45' E 024°40'918.9
2018-Feb-22 19:01N 59°43' E 024°22'918.8
2018-Feb-22 18:30N 59°40' E 024°04'1019.1
2018-Feb-22 18:00N 59°37' E 023°46'1019.7
2018-Feb-22 17:30N 59°33' E 023°28'1119.6
2018-Feb-22 16:58N 59°30' E 023°08'333 9.7
2018-Feb-21 06:41N 55°27' E 016°04'316.2
2018-Feb-21 06:30N 55°27' E 015°59'816.3
2018-Feb-21 06:00N 55°26' E 015°45'916.2
2018-Feb-21 05:28N 55°25' E 015°29'716.2
2018-Feb-21 05:00N 55°25' E 015°16'816.2
2018-Feb-21 04:30N 55°24' E 015°02'816.1
2018-Feb-21 04:00N 55°24' E 014°48'714.9
2018-Feb-21 03:30N 55°20' E 014°36'816.1
2018-Feb-21 03:00N 55°14' E 014°27'815.9
2018-Feb-21 02:31N 55°08' E 014°19'815.7
2018-Feb-21 02:00N 55°02' E 014°10'6915.7
2018-Feb-20 21:38N 54°35' E 012°20'215.5
2018-Feb-20 21:30N 54°33' E 012°19'815.4
2018-Feb-20 21:00N 54°27' E 012°13'714.8
2018-Feb-20 20:30N 54°24' E 012°01'1815.0
2018-Feb-20 19:18N 54°29' E 011°31'615.0
2018-Feb-20 18:56N 54°31' E 011°22'614.4
2018-Feb-20 18:30N 54°34' E 011°13'714.3
2018-Feb-20 18:00N 54°35' E 011°00'815.1
2018-Feb-20 17:30N 54°34' E 010°48'815.2
2018-Feb-20 17:00N 54°33' E 010°34'27 5.5
2018-Feb-20 12:12N 54°21' E 009°54'2 8.2
2018-Feb-20 11:58N 54°22' E 009°50'3 6.9
2018-Feb-20 11:30N 54°21' E 009°45'1 2.0
2018-Feb-20 11:00N 54°20' E 009°44'2 4.6
2018-Feb-20 10:30N 54°18' E 009°42'3 6.8
2018-Feb-20 10:00N 54°16' E 009°38'1 2.7
2018-Feb-20 09:30N 54°15' E 009°37'4 7.0
2018-Feb-20 09:00N 54°12' E 009°33'4 8.1
2018-Feb-20 08:30N 54°10' E 009°27'3 6.0
2018-Feb-20 08:00N 54°09' E 009°22'4 7.5
2018-Feb-20 07:30N 54°06' E 009°20'4 7.8
2018-Feb-20 07:00N 54°02' E 009°18'4 8.0
2018-Feb-20 06:30N 53°58' E 009°16'4 7.8
2018-Feb-20 06:00N 53°55' E 009°11'2 4.6
2018-Feb-20 05:30N 53°54' E 009°09'0 0.0
2018-Feb-20 05:00N 53°54' E 009°09'0 0.0
2018-Feb-20 04:30N 53°54' E 009°09'0 0.0
2018-Feb-20 04:00N 53°54' E 009°09'0 0.7
2018-Feb-20 03:30N 53°53' E 009°08'3 6.5
2018-Feb-20 03:00N 53°52' E 009°03'917.2
2018-Feb-20 02:30N 53°50' E 008°49'816.0
2018-Feb-20 02:00N 53°56' E 008°39'1019.2
2018-Feb-20 01:30N 53°59' E 008°24'916.5
2018-Feb-20 00:59N 53°59' E 008°09'1218.3
2018-Feb-20 00:22N 53°58' E 007°50'8919.1
2018-Feb-19 19:43N 53°34' E 005°26'1119.3
2018-Feb-19 19:09N 53°30' E 005°09'319.8
2018-Feb-19 18:59N 53°29' E 005°03'919.7
2018-Feb-19 18:30N 53°25' E 004°49'1019.3
2018-Feb-19 17:59N 53°18' E 004°37'1020.2
2018-Feb-19 17:30N 53°09' E 004°29'1019.8
2018-Feb-19 17:00N 53°01' E 004°22'1019.9
2018-Feb-19 16:30N 52°52' E 004°15'1120.0
2018-Feb-19 15:57N 52°42' E 004°05'1020.1
2018-Feb-19 15:28N 52°34' E 003°57'919.8
2018-Feb-19 15:00N 52°25' E 003°54'1019.1
2018-Feb-19 14:30N 52°16' E 003°53'919.1
2018-Feb-19 14:01N 52°06' E 003°55'5 9.7
2018-Feb-19 13:30N 52°01' E 003°54'917.3
2018-Feb-19 13:01N 51°58' E 004°08'612.9
2018-Feb-19 12:31N 51°54' E 004°16'5 9.7
2018-Feb-19 12:00N 51°54' E 004°24'1 2.6
2018-Feb-19 11:30N 51°53' E 004°25'0 0.0
2018-Feb-19 11:00N 51°53' E 004°25'0 0.0
2018-Feb-19 10:30N 51°53' E 004°25'0 0.0
2018-Feb-19 10:00N 51°53' E 004°25'0 0.0
2018-Feb-19 09:30N 51°53' E 004°25'0 0.0
2018-Feb-19 09:00N 51°53' E 004°25'0 0.0
2018-Feb-19 08:30N 51°53' E 004°25'0 0.0
2018-Feb-19 07:57N 51°53' E 004°25'0 0.0
2018-Feb-19 07:30N 51°53' E 004°25'0 0.0
2018-Feb-19 07:00N 51°53' E 004°25'0 0.0
2018-Feb-19 06:30N 51°53' E 004°25'0 0.0
2018-Feb-19 06:00N 51°53' E 004°25'0 0.0
2018-Feb-19 05:30N 51°53' E 004°25'0 0.0
2018-Feb-19 05:00N 51°53' E 004°25'0 0.0
2018-Feb-19 04:30N 51°53' E 004°25'0 0.0
2018-Feb-19 04:00N 51°53' E 004°25'0 0.0
2018-Feb-19 03:30N 51°53' E 004°25'0 0.0
2018-Feb-19 03:00N 51°53' E 004°25'0 0.0
2018-Feb-19 02:30N 51°53' E 004°25'0 0.0
2018-Feb-19 02:00N 51°53' E 004°25'0 0.0
2018-Feb-19 01:30N 51°53' E 004°25'0 0.0
2018-Feb-19 01:00N 51°53' E 004°25'0 0.0
2018-Feb-19 00:30N 51°53' E 004°25'0 1.0
2018-Feb-19 00:00N 51°53' E 004°24'4 7.1
2018-Feb-18 23:30N 51°54' E 004°19'611.1
2018-Feb-18 23:00N 51°57' E 004°11'611.0
2018-Feb-18 22:30N 51°59' E 004°03'917.4
2018-Feb-18 22:00N 52°01' E 003°50'918.9
2018-Feb-18 21:30N 52°05' E 003°35'1019.7
2018-Feb-18 20:59N 52°11' E 003°22'1019.9
2018-Feb-18 20:30N 52°16' E 003°09'2919.8
2018-Feb-18 19:02N 52°33' E 002°30'119.2
2018-Feb-18 19:00N 52°34' E 002°29'919.3
2018-Feb-18 18:30N 52°39' E 002°16'1019.0
2018-Feb-18 18:00N 52°44' E 002°03'918.6
2018-Feb-18 17:30N 52°49' E 001°50'917.8
2018-Feb-18 17:00N 52°54' E 001°38'917.5
2018-Feb-18 16:30N 53°01' E 001°29'917.8
2018-Feb-18 16:00N 53°08' E 001°20'917.9
2018-Feb-18 15:30N 53°16' E 001°12'118 5.2
2018-Feb-17 17:00N 54°41' W 001°07'4 8.0
2018-Feb-17 16:30N 54°43' W 001°02'1 2.5
2018-Feb-17 15:57N 54°43' W 000°59'2 5.7
2018-Feb-17 15:30N 54°44' W 000°56'3 6.0
2018-Feb-17 15:00N 54°46' W 000°51'3 6.7
2018-Feb-17 14:30N 54°48' W 000°46'42315.4
2018-Feb-16 10:58N 57°48' E 010°43'816.4
2018-Feb-16 10:30N 57°46' E 010°56'917.2
2018-Feb-16 10:00N 57°40' E 011°08'917.7
2018-Feb-16 09:30N 57°34' E 011°19'917.6
2018-Feb-16 09:00N 57°26' E 011°29'917.4
2018-Feb-16 08:30N 57°18' E 011°34'816.7
2018-Feb-16 08:00N 57°10' E 011°39'917.0
2018-Feb-16 07:30N 57°02' E 011°44'917.0
2018-Feb-16 07:00N 56°54' E 011°48'9615.7
2018-Feb-16 00:51N 55°21' E 011°02'718.2
2018-Feb-16 00:30N 55°15' E 011°06'817.3
2018-Feb-16 00:00N 55°06' E 011°03'918.2
2018-Feb-15 23:30N 54°58' E 010°59'918.0
2018-Feb-15 23:00N 54°49' E 010°53'816.8
2018-Feb-15 22:30N 54°41' E 010°55'917.7
2018-Feb-15 22:00N 54°37' E 011°09'917.9
2018-Feb-15 21:30N 54°33' E 011°23'917.7
2018-Feb-15 21:00N 54°29' E 011°37'917.5
2018-Feb-15 20:30N 54°27' E 011°51'917.5
2018-Feb-15 20:00N 54°26' E 012°06'9416.5
2018-Feb-15 14:18N 54°40' E 014°47'518.4
2018-Feb-15 14:00N 54°40' E 014°56'918.2
2018-Feb-15 13:30N 54°42' E 015°12'10318.2
2018-Feb-15 07:51N 54°55' E 018°09'618.4
2018-Feb-15 07:30N 54°55' E 018°20'918.0
2018-Feb-15 07:01N 54°53' E 018°35'918.8
2018-Feb-15 06:30N 54°47' E 018°48'917.9
2018-Feb-15 06:00N 54°40' E 018°58'1018.5
2018-Feb-15 05:29N 54°32' E 018°48'816.3
2018-Feb-15 05:00N 54°32' E 018°34'2 4.9
2018-Feb-15 04:30N 54°33' E 018°30'0 0.0
2018-Feb-15 04:00N 54°33' E 018°30'0 0.0
2018-Feb-15 03:30N 54°33' E 018°30'0 0.0
2018-Feb-15 03:00N 54°33' E 018°30'0 0.0
2018-Feb-15 02:30N 54°33' E 018°30'0 0.0
2018-Feb-15 02:00N 54°33' E 018°30'0 0.0
2018-Feb-15 01:30N 54°33' E 018°30'0 0.0
2018-Feb-15 01:00N 54°33' E 018°30'0 0.0
2018-Feb-15 00:28N 54°33' E 018°30'0 0.0
2018-Feb-14 23:59N 54°33' E 018°30'0 0.0
2018-Feb-14 23:30N 54°33' E 018°30'0 0.0
2018-Feb-14 23:00N 54°33' E 018°30'0 0.0
2018-Feb-14 22:30N 54°33' E 018°30'0 0.0
2018-Feb-14 22:00N 54°33' E 018°30'0 0.0
2018-Feb-14 21:30N 54°33' E 018°30'0 0.0
2018-Feb-14 21:00N 54°33' E 018°30'0 0.1
2018-Feb-14 20:29N 54°33' E 018°30'0 0.0
2018-Feb-14 20:00N 54°33' E 018°30'0 0.0
2018-Feb-14 19:29N 54°33' E 018°30'0 0.0
2018-Feb-14 19:00N 54°33' E 018°30'0 0.7
2018-Feb-14 18:30N 54°33' E 018°31'2 4.4
2018-Feb-14 18:00N 54°32' E 018°35'2 4.7
2018-Feb-14 17:30N 54°32' E 018°39'612.0
2018-Feb-14 17:00N 54°33' E 018°49'815.9
2018-Feb-14 16:30N 54°40' E 018°56'916.9
2018-Feb-14 16:00N 54°48' E 019°02'1019.2
2018-Feb-14 15:30N 54°57' E 019°08'918.9
2018-Feb-14 15:00N 55°05' E 019°14'  

Dump ship's entire track history